METAR Data
IDs: Format: Raw Decoded Include TAF

Data at: 1150 UTC 18 Nov 2018

METAR for:GCLA (La Palma Arpt, --, CR)
Text:GCLA 181130Z VRB02KT 9999 FEW040 22/11 Q1014
Temperature: 22.0°C ( 72°F)
Dewpoint: 11.0°C ( 52°F) [RH = 50%]
Pressure (altimeter):29.94 inches Hg (1014.0 mb)
Winds:variable direction winds at 2 MPH (2 knots; 1.0 m/s)
Visibility:6 or more sm (10+ km)
Ceiling:at least 12,000 feet AGL
Clouds: few clouds at 4000 feet AGL